sensor_id;sensor_type;location;lat;lon;timestamp;temperature;humidity
7598;DHT22;3840;59.32098800;18.06423600;2024-03-02T00:02:24;3.80;99.90
7598;DHT22;3840;59.32098800;18.06423600;2024-03-02T00:04:51;3.80;99.90
7598;DHT22;3840;59.32098800;18.06423600;2024-03-02T00:07:17;3.70;99.90
7598;DHT22;3840;59.32098800;18.06423600;2024-03-02T00:09:43;3.80;99.90
7598;DHT22;3840;59.32098800;18.06423600;2024-03-02T00:12:12;3.80;99.90
7598;DHT22;3840;59.32098800;18.06423600;2024-03-02T00:14:41;3.70;99.90
7598;DHT22;3840;59.32098800;18.06423600;2024-03-02T00:17:17;3.70;99.90
7598;DHT22;3840;59.32098800;18.06423600;2024-03-02T00:19:46;3.70;99.90
7598;DHT22;3840;59.32098800;18.06423600;2024-03-02T00:22:12;3.70;99.90
7598;DHT22;3840;59.32098800;18.06423600;2024-03-02T00:24:39;3.70;99.90
7598;DHT22;3840;59.32098800;18.06423600;2024-03-02T00:27:07;3.60;99.90
7598;DHT22;3840;59.32098800;18.06423600;2024-03-02T00:29:32;3.80;99.90
7598;DHT22;3840;59.32098800;18.06423600;2024-03-02T00:32:01;3.70;99.90
7598;DHT22;3840;59.32098800;18.06423600;2024-03-02T00:34:26;3.60;99.90
7598;DHT22;3840;59.32098800;18.06423600;2024-03-02T00:36:52;3.60;99.90
7598;DHT22;3840;59.32098800;18.06423600;2024-03-02T00:39:18;3.60;99.90
7598;DHT22;3840;59.32098800;18.06423600;2024-03-02T00:41:44;3.50;99.90
7598;DHT22;3840;59.32098800;18.06423600;2024-03-02T00:44:12;3.50;99.90
7598;DHT22;3840;59.32098800;18.06423600;2024-03-02T00:46:40;3.60;99.90
7598;DHT22;3840;59.32098800;18.06423600;2024-03-02T00:49:18;3.50;99.90
7598;DHT22;3840;59.32098800;18.06423600;2024-03-02T00:51:47;3.50;99.90
7598;DHT22;3840;59.32098800;18.06423600;2024-03-02T00:54:27;3.50;99.90
7598;DHT22;3840;59.32098800;18.06423600;2024-03-02T00:56:54;3.40;99.90
7598;DHT22;3840;59.32098800;18.06423600;2024-03-02T00:59:21;3.40;99.90
7598;DHT22;3840;59.32098800;18.06423600;2024-03-02T01:01:48;3.40;99.90
7598;DHT22;3840;59.32098800;18.06423600;2024-03-02T01:04:15;3.30;99.90
7598;DHT22;3840;59.32098800;18.06423600;2024-03-02T01:06:44;3.30;99.90
7598;DHT22;3840;59.32098800;18.06423600;2024-03-02T01:09:11;3.30;99.90
7598;DHT22;3840;59.32098800;18.06423600;2024-03-02T01:11:37;3.30;99.90
7598;DHT22;3840;59.32098800;18.06423600;2024-03-02T01:14:03;3.30;99.90
7598;DHT22;3840;59.32098800;18.06423600;2024-03-02T01:16:29;3.30;99.90
7598;DHT22;3840;59.32098800;18.06423600;2024-03-02T01:18:55;3.20;99.90
7598;DHT22;3840;59.32098800;18.06423600;2024-03-02T01:21:20;3.20;99.90
7598;DHT22;3840;59.32098800;18.06423600;2024-03-02T01:23:46;3.20;99.90
7598;DHT22;3840;59.32098800;18.06423600;2024-03-02T01:26:12;3.20;99.90
7598;DHT22;3840;59.32098800;18.06423600;2024-03-02T01:28:37;3.20;99.90
7598;DHT22;3840;59.32098800;18.06423600;2024-03-02T01:31:03;3.40;99.90
7598;DHT22;3840;59.32098800;18.06423600;2024-03-02T01:33:29;3.20;99.90
7598;DHT22;3840;59.32098800;18.06423600;2024-03-02T01:35:54;3.20;99.90
7598;DHT22;3840;59.32098800;18.06423600;2024-03-02T01:38:20;3.10;99.90
7598;DHT22;3840;59.32098800;18.06423600;2024-03-02T01:40:46;3.20;99.90
7598;DHT22;3840;59.32098800;18.06423600;2024-03-02T01:43:11;3.20;99.90
7598;DHT22;3840;59.32098800;18.06423600;2024-03-02T01:45:37;3.20;99.90
7598;DHT22;3840;59.32098800;18.06423600;2024-03-02T01:48:06;3.20;99.90
7598;DHT22;3840;59.32098800;18.06423600;2024-03-02T01:50:33;3.20;99.90
7598;DHT22;3840;59.32098800;18.06423600;2024-03-02T01:53:00;3.10;99.90
7598;DHT22;3840;59.32098800;18.06423600;2024-03-02T01:55:26;3.20;99.90
7598;DHT22;3840;59.32098800;18.06423600;2024-03-02T01:57:54;3.10;99.90
7598;DHT22;3840;59.32098800;18.06423600;2024-03-02T02:00:20;3.40;99.90
7598;DHT22;3840;59.32098800;18.06423600;2024-03-02T02:02:47;3.30;99.90
7598;DHT22;3840;59.32098800;18.06423600;2024-03-02T02:05:13;3.10;99.90
7598;DHT22;3840;59.32098800;18.06423600;2024-03-02T02:07:40;3.10;99.90
7598;DHT22;3840;59.32098800;18.06423600;2024-03-02T02:10:07;3.10;99.90
7598;DHT22;3840;59.32098800;18.06423600;2024-03-02T02:12:33;3.20;99.90
7598;DHT22;3840;59.32098800;18.06423600;2024-03-02T02:14:59;3.20;99.90
7598;DHT22;3840;59.32098800;18.06423600;2024-03-02T02:17:24;3.20;99.90
7598;DHT22;3840;59.32098800;18.06423600;2024-03-02T02:19:50;3.10;99.90
7598;DHT22;3840;59.32098800;18.06423600;2024-03-02T02:22:15;3.10;99.90
7598;DHT22;3840;59.32098800;18.06423600;2024-03-02T02:24:42;3.10;99.90
7598;DHT22;3840;59.32098800;18.06423600;2024-03-02T02:27:08;3.10;99.90
7598;DHT22;3840;59.32098800;18.06423600;2024-03-02T02:29:34;3.10;99.90
7598;DHT22;3840;59.32098800;18.06423600;2024-03-02T02:32:00;3.10;99.90
7598;DHT22;3840;59.32098800;18.06423600;2024-03-02T02:34:26;3.10;99.90
7598;DHT22;3840;59.32098800;18.06423600;2024-03-02T02:36:52;3.00;99.90
7598;DHT22;3840;59.32098800;18.06423600;2024-03-02T02:39:20;3.00;99.90
7598;DHT22;3840;59.32098800;18.06423600;2024-03-02T02:41:46;3.00;99.90
7598;DHT22;3840;59.32098800;18.06423600;2024-03-02T02:44:11;3.00;99.90
7598;DHT22;3840;59.32098800;18.06423600;2024-03-02T02:46:38;3.40;99.90
7598;DHT22;3840;59.32098800;18.06423600;2024-03-02T02:49:04;3.00;99.90
7598;DHT22;3840;59.32098800;18.06423600;2024-03-02T02:51:30;3.00;99.90
7598;DHT22;3840;59.32098800;18.06423600;2024-03-02T02:53:56;3.00;99.90
7598;DHT22;3840;59.32098800;18.06423600;2024-03-02T02:56:22;3.30;99.90
7598;DHT22;3840;59.32098800;18.06423600;2024-03-02T02:58:47;3.00;99.90
7598;DHT22;3840;59.32098800;18.06423600;2024-03-02T03:01:14;3.00;99.90
7598;DHT22;3840;59.32098800;18.06423600;2024-03-02T03:03:40;3.00;99.90
7598;DHT22;3840;59.32098800;18.06423600;2024-03-02T03:06:06;3.00;99.90
7598;DHT22;3840;59.32098800;18.06423600;2024-03-02T03:08:31;3.00;99.90
7598;DHT22;3840;59.32098800;18.06423600;2024-03-02T03:10:57;3.40;99.90
7598;DHT22;3840;59.32098800;18.06423600;2024-03-02T03:13:23;3.00;99.90
7598;DHT22;3840;59.32098800;18.06423600;2024-03-02T03:15:48;3.00;99.90
7598;DHT22;3840;59.32098800;18.06423600;2024-03-02T03:18:14;3.00;99.90
7598;DHT22;3840;59.32098800;18.06423600;2024-03-02T03:20:40;3.00;99.90
7598;DHT22;3840;59.32098800;18.06423600;2024-03-02T03:23:05;2.90;99.90
7598;DHT22;3840;59.32098800;18.06423600;2024-03-02T03:25:31;3.00;99.90
7598;DHT22;3840;59.32098800;18.06423600;2024-03-02T03:27:57;3.00;99.90
7598;DHT22;3840;59.32098800;18.06423600;2024-03-02T03:30:23;3.00;99.90
7598;DHT22;3840;59.32098800;18.06423600;2024-03-02T03:32:48;3.00;99.90
7598;DHT22;3840;59.32098800;18.06423600;2024-03-02T03:35:14;2.90;99.90
7598;DHT22;3840;59.32098800;18.06423600;2024-03-02T03:37:41;2.90;99.90
7598;DHT22;3840;59.32098800;18.06423600;2024-03-02T03:40:07;2.90;99.90
7598;DHT22;3840;59.32098800;18.06423600;2024-03-02T03:42:36;2.90;99.90
7598;DHT22;3840;59.32098800;18.06423600;2024-03-02T03:45:02;2.90;99.90
7598;DHT22;3840;59.32098800;18.06423600;2024-03-02T03:47:27;3.10;99.90
7598;DHT22;3840;59.32098800;18.06423600;2024-03-02T03:49:53;2.90;99.90
7598;DHT22;3840;59.32098800;18.06423600;2024-03-02T03:52:19;3.50;99.90
7598;DHT22;3840;59.32098800;18.06423600;2024-03-02T03:54:44;2.90;99.90
7598;DHT22;3840;59.32098800;18.06423600;2024-03-02T03:57:10;2.90;99.90
7598;DHT22;3840;59.32098800;18.06423600;2024-03-02T03:59:36;2.90;99.90
7598;DHT22;3840;59.32098800;18.06423600;2024-03-02T04:02:04;2.90;99.90
7598;DHT22;3840;59.32098800;18.06423600;2024-03-02T04:04:30;2.90;99.90
7598;DHT22;3840;59.32098800;18.06423600;2024-03-02T04:06:55;3.60;99.90
7598;DHT22;3840;59.32098800;18.06423600;2024-03-02T04:09:21;2.90;99.90
7598;DHT22;3840;59.32098800;18.06423600;2024-03-02T04:11:47;2.90;99.90
7598;DHT22;3840;59.32098800;18.06423600;2024-03-02T04:14:13;2.90;99.90
7598;DHT22;3840;59.32098800;18.06423600;2024-03-02T04:16:39;2.90;99.90
7598;DHT22;3840;59.32098800;18.06423600;2024-03-02T04:19:04;3.50;99.90
7598;DHT22;3840;59.32098800;18.06423600;2024-03-02T04:21:30;2.80;99.90
7598;DHT22;3840;59.32098800;18.06423600;2024-03-02T04:23:56;2.90;99.90
7598;DHT22;3840;59.32098800;18.06423600;2024-03-02T04:26:25;3.20;99.90
7598;DHT22;3840;59.32098800;18.06423600;2024-03-02T04:28:52;2.80;99.90
7598;DHT22;3840;59.32098800;18.06423600;2024-03-02T04:31:18;2.80;99.90
7598;DHT22;3840;59.32098800;18.06423600;2024-03-02T04:33:43;2.80;99.90
7598;DHT22;3840;59.32098800;18.06423600;2024-03-02T04:36:09;2.80;99.90
7598;DHT22;3840;59.32098800;18.06423600;2024-03-02T04:38:35;3.30;99.90
7598;DHT22;3840;59.32098800;18.06423600;2024-03-02T04:41:01;3.10;99.90
7598;DHT22;3840;59.32098800;18.06423600;2024-03-02T04:43:27;2.80;99.90
7598;DHT22;3840;59.32098800;18.06423600;2024-03-02T04:45:52;2.90;99.90
7598;DHT22;3840;59.32098800;18.06423600;2024-03-02T04:48:18;2.70;99.90
7598;DHT22;3840;59.32098800;18.06423600;2024-03-02T04:50:44;2.70;99.90
7598;DHT22;3840;59.32098800;18.06423600;2024-03-02T04:53:10;2.70;99.90
7598;DHT22;3840;59.32098800;18.06423600;2024-03-02T04:55:36;1.90;99.90
7598;DHT22;3840;59.32098800;18.06423600;2024-03-02T04:58:04;2.70;99.90
7598;DHT22;3840;59.32098800;18.06423600;2024-03-02T05:00:30;2.70;99.90
7598;DHT22;3840;59.32098800;18.06423600;2024-03-02T05:02:56;2.90;99.90
7598;DHT22;3840;59.32098800;18.06423600;2024-03-02T05:05:22;2.70;99.90
7598;DHT22;3840;59.32098800;18.06423600;2024-03-02T05:07:47;3.50;99.90
7598;DHT22;3840;59.32098800;18.06423600;2024-03-02T05:10:13;2.60;99.90
7598;DHT22;3840;59.32098800;18.06423600;2024-03-02T05:12:39;2.60;99.90
7598;DHT22;3840;59.32098800;18.06423600;2024-03-02T05:15:12;2.70;99.90
7598;DHT22;3840;59.32098800;18.06423600;2024-03-02T05:17:39;2.70;99.90
7598;DHT22;3840;59.32098800;18.06423600;2024-03-02T05:20:06;2.70;99.90
7598;DHT22;3840;59.32098800;18.06423600;2024-03-02T05:22:33;2.70;99.90
7598;DHT22;3840;59.32098800;18.06423600;2024-03-02T05:25:00;2.70;99.90
7598;DHT22;3840;59.32098800;18.06423600;2024-03-02T05:27:26;2.70;99.90
7598;DHT22;3840;59.32098800;18.06423600;2024-03-02T05:29:52;2.70;99.90
7598;DHT22;3840;59.32098800;18.06423600;2024-03-02T05:32:18;3.50;99.90
7598;DHT22;3840;59.32098800;18.06423600;2024-03-02T05:34:44;2.80;99.90
7598;DHT22;3840;59.32098800;18.06423600;2024-03-02T05:37:09;2.80;99.90
7598;DHT22;3840;59.32098800;18.06423600;2024-03-02T05:39:35;2.70;99.90
7598;DHT22;3840;59.32098800;18.06423600;2024-03-02T05:42:01;2.70;99.90
7598;DHT22;3840;59.32098800;18.06423600;2024-03-02T05:44:26;2.80;99.90
7598;DHT22;3840;59.32098800;18.06423600;2024-03-02T05:46:52;3.60;99.90
7598;DHT22;3840;59.32098800;18.06423600;2024-03-02T05:49:18;2.70;99.90
7598;DHT22;3840;59.32098800;18.06423600;2024-03-02T05:51:43;2.70;99.90
7598;DHT22;3840;59.32098800;18.06423600;2024-03-02T05:54:09;2.80;99.90
7598;DHT22;3840;59.32098800;18.06423600;2024-03-02T05:56:35;3.40;99.90
7598;DHT22;3840;59.32098800;18.06423600;2024-03-02T05:59:01;2.80;99.90
7598;DHT22;3840;59.32098800;18.06423600;2024-03-02T06:01:41;3.50;99.90
7598;DHT22;3840;59.32098800;18.06423600;2024-03-02T06:04:09;2.80;99.90
7598;DHT22;3840;59.32098800;18.06423600;2024-03-02T06:06:34;2.90;99.90
7598;DHT22;3840;59.32098800;18.06423600;2024-03-02T06:09:04;3.50;99.90
7598;DHT22;3840;59.32098800;18.06423600;2024-03-02T06:13:59;2.90;99.90
7598;DHT22;3840;59.32098800;18.06423600;2024-03-02T06:16:25;2.90;99.90
7598;DHT22;3840;59.32098800;18.06423600;2024-03-02T06:18:51;3.00;99.90
7598;DHT22;3840;59.32098800;18.06423600;2024-03-02T06:21:17;3.00;99.90
7598;DHT22;3840;59.32098800;18.06423600;2024-03-02T06:23:44;3.30;99.90
7598;DHT22;3840;59.32098800;18.06423600;2024-03-02T06:26:09;3.00;99.90
7598;DHT22;3840;59.32098800;18.06423600;2024-03-02T06:28:35;3.10;99.90
7598;DHT22;3840;59.32098800;18.06423600;2024-03-02T06:31:02;3.30;99.90
7598;DHT22;3840;59.32098800;18.06423600;2024-03-02T06:33:29;3.20;99.90
7598;DHT22;3840;59.32098800;18.06423600;2024-03-02T06:35:54;3.30;99.90
7598;DHT22;3840;59.32098800;18.06423600;2024-03-02T06:38:20;3.30;99.90
7598;DHT22;3840;59.32098800;18.06423600;2024-03-02T06:40:46;4.40;99.90
7598;DHT22;3840;59.32098800;18.06423600;2024-03-02T06:43:11;3.40;99.90
7598;DHT22;3840;59.32098800;18.06423600;2024-03-02T06:45:37;3.60;99.90
7598;DHT22;3840;59.32098800;18.06423600;2024-03-02T06:48:03;3.50;99.90
7598;DHT22;3840;59.32098800;18.06423600;2024-03-02T06:50:29;3.60;99.90
7598;DHT22;3840;59.32098800;18.06423600;2024-03-02T06:52:55;3.60;99.90
7598;DHT22;3840;59.32098800;18.06423600;2024-03-02T06:55:23;3.70;99.90
7598;DHT22;3840;59.32098800;18.06423600;2024-03-02T06:57:52;3.70;99.90
7598;DHT22;3840;59.32098800;18.06423600;2024-03-02T07:00:19;3.80;99.90
7598;DHT22;3840;59.32098800;18.06423600;2024-03-02T07:02:46;3.80;99.90
7598;DHT22;3840;59.32098800;18.06423600;2024-03-02T07:05:12;3.80;99.90
7598;DHT22;3840;59.32098800;18.06423600;2024-03-02T07:07:37;3.90;99.90
7598;DHT22;3840;59.32098800;18.06423600;2024-03-02T07:10:04;4.00;99.90
7598;DHT22;3840;59.32098800;18.06423600;2024-03-02T07:12:30;4.00;99.90
7598;DHT22;3840;59.32098800;18.06423600;2024-03-02T07:14:56;4.00;99.90
7598;DHT22;3840;59.32098800;18.06423600;2024-03-02T07:17:42;4.10;99.90
7598;DHT22;3840;59.32098800;18.06423600;2024-03-02T07:20:08;4.20;99.90
7598;DHT22;3840;59.32098800;18.06423600;2024-03-02T07:22:34;4.20;99.90
7598;DHT22;3840;59.32098800;18.06423600;2024-03-02T07:25:00;4.20;99.90
7598;DHT22;3840;59.32098800;18.06423600;2024-03-02T07:27:25;4.20;99.90
7598;DHT22;3840;59.32098800;18.06423600;2024-03-02T07:29:51;4.30;99.90
7598;DHT22;3840;59.32098800;18.06423600;2024-03-02T07:32:17;4.30;99.90
7598;DHT22;3840;59.32098800;18.06423600;2024-03-02T07:34:42;4.40;99.90
7598;DHT22;3840;59.32098800;18.06423600;2024-03-02T07:37:08;4.40;99.90
7598;DHT22;3840;59.32098800;18.06423600;2024-03-02T07:39:34;4.40;99.90
7598;DHT22;3840;59.32098800;18.06423600;2024-03-02T07:42:00;4.50;99.90
7598;DHT22;3840;59.32098800;18.06423600;2024-03-02T07:44:25;4.50;99.90
7598;DHT22;3840;59.32098800;18.06423600;2024-03-02T07:46:51;4.60;99.90
7598;DHT22;3840;59.32098800;18.06423600;2024-03-02T07:49:18;4.60;99.90
7598;DHT22;3840;59.32098800;18.06423600;2024-03-02T07:51:44;4.60;99.90
7598;DHT22;3840;59.32098800;18.06423600;2024-03-02T07:54:09;4.60;99.90
7598;DHT22;3840;59.32098800;18.06423600;2024-03-02T07:56:35;4.70;99.90
7598;DHT22;3840;59.32098800;18.06423600;2024-03-02T07:59:02;4.70;99.90
7598;DHT22;3840;59.32098800;18.06423600;2024-03-02T08:01:30;4.80;99.90
7598;DHT22;3840;59.32098800;18.06423600;2024-03-02T08:04:00;4.80;99.90
7598;DHT22;3840;59.32098800;18.06423600;2024-03-02T08:06:27;4.90;99.90
7598;DHT22;3840;59.32098800;18.06423600;2024-03-02T08:08:54;4.90;99.90
7598;DHT22;3840;59.32098800;18.06423600;2024-03-02T08:11:20;4.90;99.90
7598;DHT22;3840;59.32098800;18.06423600;2024-03-02T08:13:46;5.00;99.90
7598;DHT22;3840;59.32098800;18.06423600;2024-03-02T08:16:12;4.90;99.90
7598;DHT22;3840;59.32098800;18.06423600;2024-03-02T08:18:38;5.00;99.90
7598;DHT22;3840;59.32098800;18.06423600;2024-03-02T08:21:04;6.30;99.90
7598;DHT22;3840;59.32098800;18.06423600;2024-03-02T08:23:30;5.00;99.90
7598;DHT22;3840;59.32098800;18.06423600;2024-03-02T08:25:56;5.00;99.90
7598;DHT22;3840;59.32098800;18.06423600;2024-03-02T08:28:22;5.00;99.90
7598;DHT22;3840;59.32098800;18.06423600;2024-03-02T08:30:48;5.00;99.90
7598;DHT22;3840;59.32098800;18.06423600;2024-03-02T08:33:13;5.00;99.90
7598;DHT22;3840;59.32098800;18.06423600;2024-03-02T08:35:39;5.00;99.90
7598;DHT22;3840;59.32098800;18.06423600;2024-03-02T08:38:05;5.10;99.90
7598;DHT22;3840;59.32098800;18.06423600;2024-03-02T08:40:31;5.20;99.90
7598;DHT22;3840;59.32098800;18.06423600;2024-03-02T08:42:56;5.20;99.90
7598;DHT22;3840;59.32098800;18.06423600;2024-03-02T08:45:22;5.10;99.90
7598;DHT22;3840;59.32098800;18.06423600;2024-03-02T08:47:48;5.10;99.90
7598;DHT22;3840;59.32098800;18.06423600;2024-03-02T08:50:14;5.10;99.90
7598;DHT22;3840;59.32098800;18.06423600;2024-03-02T08:52:39;5.10;99.90
7598;DHT22;3840;59.32098800;18.06423600;2024-03-02T08:55:06;5.10;99.90
7598;DHT22;3840;59.32098800;18.06423600;2024-03-02T08:57:33;5.10;99.90
7598;DHT22;3840;59.32098800;18.06423600;2024-03-02T08:59:59;5.10;99.90
7598;DHT22;3840;59.32098800;18.06423600;2024-03-02T09:02:25;5.10;99.90
7598;DHT22;3840;59.32098800;18.06423600;2024-03-02T09:04:51;5.10;99.90
7598;DHT22;3840;59.32098800;18.06423600;2024-03-02T09:07:17;5.10;99.90
7598;DHT22;3840;59.32098800;18.06423600;2024-03-02T09:09:42;5.20;99.90
7598;DHT22;3840;59.32098800;18.06423600;2024-03-02T09:12:08;5.20;99.90
7598;DHT22;3840;59.32098800;18.06423600;2024-03-02T09:14:35;5.20;99.90
7598;DHT22;3840;59.32098800;18.06423600;2024-03-02T09:17:02;5.30;99.90
7598;DHT22;3840;59.32098800;18.06423600;2024-03-02T09:19:29;5.30;99.90
7598;DHT22;3840;59.32098800;18.06423600;2024-03-02T09:21:55;5.30;99.90
7598;DHT22;3840;59.32098800;18.06423600;2024-03-02T09:24:21;5.30;99.90
7598;DHT22;3840;59.32098800;18.06423600;2024-03-02T09:26:47;5.40;99.90
7598;DHT22;3840;59.32098800;18.06423600;2024-03-02T09:29:13;5.50;99.90
7598;DHT22;3840;59.32098800;18.06423600;2024-03-02T09:31:43;5.50;99.90
7598;DHT22;3840;59.32098800;18.06423600;2024-03-02T09:34:09;5.70;99.90
7598;DHT22;3840;59.32098800;18.06423600;2024-03-02T09:36:34;5.70;99.90
7598;DHT22;3840;59.32098800;18.06423600;2024-03-02T09:39:00;5.80;99.90
7598;DHT22;3840;59.32098800;18.06423600;2024-03-02T09:41:26;5.90;99.90
7598;DHT22;3840;59.32098800;18.06423600;2024-03-02T09:43:51;6.00;99.90
7598;DHT22;3840;59.32098800;18.06423600;2024-03-02T09:46:18;6.10;99.90
7598;DHT22;3840;59.32098800;18.06423600;2024-03-02T09:48:44;6.10;99.90
7598;DHT22;3840;59.32098800;18.06423600;2024-03-02T09:51:11;6.10;99.90
7598;DHT22;3840;59.32098800;18.06423600;2024-03-02T09:53:37;6.20;99.90
7598;DHT22;3840;59.32098800;18.06423600;2024-03-02T09:56:03;6.10;99.90
7598;DHT22;3840;59.32098800;18.06423600;2024-03-02T09:58:30;6.20;99.90
7598;DHT22;3840;59.32098800;18.06423600;2024-03-02T10:00:56;6.20;99.90
7598;DHT22;3840;59.32098800;18.06423600;2024-03-02T10:03:23;6.20;99.90
7598;DHT22;3840;59.32098800;18.06423600;2024-03-02T10:05:52;6.10;99.90
7598;DHT22;3840;59.32098800;18.06423600;2024-03-02T10:08:18;6.10;99.90
7598;DHT22;3840;59.32098800;18.06423600;2024-03-02T10:10:43;6.10;99.90
7598;DHT22;3840;59.32098800;18.06423600;2024-03-02T10:13:10;6.20;99.90
7598;DHT22;3840;59.32098800;18.06423600;2024-03-02T10:15:37;6.20;99.90
7598;DHT22;3840;59.32098800;18.06423600;2024-03-02T10:18:13;6.10;99.90
7598;DHT22;3840;59.32098800;18.06423600;2024-03-02T10:20:40;6.10;99.90
7598;DHT22;3840;59.32098800;18.06423600;2024-03-02T10:23:16;6.10;99.90
7598;DHT22;3840;59.32098800;18.06423600;2024-03-02T10:25:43;6.10;99.90
7598;DHT22;3840;59.32098800;18.06423600;2024-03-02T10:28:09;6.10;99.90
7598;DHT22;3840;59.32098800;18.06423600;2024-03-02T10:30:35;6.10;99.90
7598;DHT22;3840;59.32098800;18.06423600;2024-03-02T10:33:02;6.10;99.90
7598;DHT22;3840;59.32098800;18.06423600;2024-03-02T10:35:28;6.00;99.90
7598;DHT22;3840;59.32098800;18.06423600;2024-03-02T10:37:54;6.00;99.90
7598;DHT22;3840;59.32098800;18.06423600;2024-03-02T10:40:23;5.80;99.90
7598;DHT22;3840;59.32098800;18.06423600;2024-03-02T10:42:50;5.80;99.90
7598;DHT22;3840;59.32098800;18.06423600;2024-03-02T10:45:17;5.80;99.90
7598;DHT22;3840;59.32098800;18.06423600;2024-03-02T10:47:45;5.90;99.90
7598;DHT22;3840;59.32098800;18.06423600;2024-03-02T10:50:12;5.90;99.90
7598;DHT22;3840;59.32098800;18.06423600;2024-03-02T10:52:38;5.90;99.90
7598;DHT22;3840;59.32098800;18.06423600;2024-03-02T10:55:08;5.90;99.90
7598;DHT22;3840;59.32098800;18.06423600;2024-03-02T10:57:43;5.90;99.90
7598;DHT22;3840;59.32098800;18.06423600;2024-03-02T11:00:14;5.90;99.90
7598;DHT22;3840;59.32098800;18.06423600;2024-03-02T11:03:06;5.90;99.90
7598;DHT22;3840;59.32098800;18.06423600;2024-03-02T11:05:37;5.90;99.90
7598;DHT22;3840;59.32098800;18.06423600;2024-03-02T11:08:08;6.00;99.90
7598;DHT22;3840;59.32098800;18.06423600;2024-03-02T11:10:56;6.00;99.90
7598;DHT22;3840;59.32098800;18.06423600;2024-03-02T11:13:30;6.00;99.90
7598;DHT22;3840;59.32098800;18.06423600;2024-03-02T11:16:03;6.10;99.90
7598;DHT22;3840;59.32098800;18.06423600;2024-03-02T11:18:32;6.00;99.90
7598;DHT22;3840;59.32098800;18.06423600;2024-03-02T11:20:59;6.00;99.90
7598;DHT22;3840;59.32098800;18.06423600;2024-03-02T11:23:34;6.00;99.90
7598;DHT22;3840;59.32098800;18.06423600;2024-03-02T11:28:45;6.00;99.90
7598;DHT22;3840;59.32098800;18.06423600;2024-03-02T11:31:11;6.00;99.90
7598;DHT22;3840;59.32098800;18.06423600;2024-03-02T11:33:37;6.10;99.90
7598;DHT22;3840;59.32098800;18.06423600;2024-03-02T11:36:02;6.10;99.90
7598;DHT22;3840;59.32098800;18.06423600;2024-03-02T11:38:30;6.20;99.90
7598;DHT22;3840;59.32098800;18.06423600;2024-03-02T11:40:59;6.20;99.90
7598;DHT22;3840;59.32098800;18.06423600;2024-03-02T11:43:27;6.10;99.90
7598;DHT22;3840;59.32098800;18.06423600;2024-03-02T11:46:00;6.10;99.90
7598;DHT22;3840;59.32098800;18.06423600;2024-03-02T11:48:26;6.10;99.90
7598;DHT22;3840;59.32098800;18.06423600;2024-03-02T11:50:57;6.10;99.90
7598;DHT22;3840;59.32098800;18.06423600;2024-03-02T11:53:23;6.10;99.90
7598;DHT22;3840;59.32098800;18.06423600;2024-03-02T11:55:50;6.10;99.90
7598;DHT22;3840;59.32098800;18.06423600;2024-03-02T11:58:17;6.10;99.90
7598;DHT22;3840;59.32098800;18.06423600;2024-03-02T12:00:46;6.10;99.90
7598;DHT22;3840;59.32098800;18.06423600;2024-03-02T12:03:13;6.30;99.90
7598;DHT22;3840;59.32098800;18.06423600;2024-03-02T12:05:42;6.10;99.90
7598;DHT22;3840;59.32098800;18.06423600;2024-03-02T12:08:08;6.10;99.90
7598;DHT22;3840;59.32098800;18.06423600;2024-03-02T12:10:34;6.00;99.90
7598;DHT22;3840;59.32098800;18.06423600;2024-03-02T12:13:06;6.00;99.90
7598;DHT22;3840;59.32098800;18.06423600;2024-03-02T12:15:37;6.00;99.90
7598;DHT22;3840;59.32098800;18.06423600;2024-03-02T12:18:03;6.00;99.90
7598;DHT22;3840;59.32098800;18.06423600;2024-03-02T12:20:30;6.00;99.90
7598;DHT22;3840;59.32098800;18.06423600;2024-03-02T12:23:01;6.00;99.90
7598;DHT22;3840;59.32098800;18.06423600;2024-03-02T12:25:28;6.00;99.90
7598;DHT22;3840;59.32098800;18.06423600;2024-03-02T12:27:56;5.90;99.90
7598;DHT22;3840;59.32098800;18.06423600;2024-03-02T12:30:23;5.80;99.90
7598;DHT22;3840;59.32098800;18.06423600;2024-03-02T12:32:49;5.80;99.90
7598;DHT22;3840;59.32098800;18.06423600;2024-03-02T12:35:15;5.80;99.90
7598;DHT22;3840;59.32098800;18.06423600;2024-03-02T12:37:44;5.80;99.90
7598;DHT22;3840;59.32098800;18.06423600;2024-03-02T12:40:11;5.80;99.90
7598;DHT22;3840;59.32098800;18.06423600;2024-03-02T12:42:41;5.80;99.90
7598;DHT22;3840;59.32098800;18.06423600;2024-03-02T12:45:09;5.80;99.90
7598;DHT22;3840;59.32098800;18.06423600;2024-03-02T12:47:35;5.80;99.90
7598;DHT22;3840;59.32098800;18.06423600;2024-03-02T12:50:02;5.70;99.90
7598;DHT22;3840;59.32098800;18.06423600;2024-03-02T12:52:29;5.70;99.90
7598;DHT22;3840;59.32098800;18.06423600;2024-03-02T12:55:08;5.70;99.90
7598;DHT22;3840;59.32098800;18.06423600;2024-03-02T12:57:34;5.70;99.90
7598;DHT22;3840;59.32098800;18.06423600;2024-03-02T13:00:02;5.70;99.90
7598;DHT22;3840;59.32098800;18.06423600;2024-03-02T13:02:34;5.70;99.90
7598;DHT22;3840;59.32098800;18.06423600;2024-03-02T13:05:00;5.70;99.90
7598;DHT22;3840;59.32098800;18.06423600;2024-03-02T13:07:26;5.60;99.90
7598;DHT22;3840;59.32098800;18.06423600;2024-03-02T13:09:53;5.70;99.90
7598;DHT22;3840;59.32098800;18.06423600;2024-03-02T13:12:23;5.70;99.90
7598;DHT22;3840;59.32098800;18.06423600;2024-03-02T13:14:52;5.60;99.90
7598;DHT22;3840;59.32098800;18.06423600;2024-03-02T13:17:19;5.60;99.90
7598;DHT22;3840;59.32098800;18.06423600;2024-03-02T13:19:59;5.60;99.90
7598;DHT22;3840;59.32098800;18.06423600;2024-03-02T13:22:25;5.70;99.90
7598;DHT22;3840;59.32098800;18.06423600;2024-03-02T13:24:51;5.70;99.90
7598;DHT22;3840;59.32098800;18.06423600;2024-03-02T13:27:18;5.70;99.90
7598;DHT22;3840;59.32098800;18.06423600;2024-03-02T13:29:47;5.70;99.90
7598;DHT22;3840;59.32098800;18.06423600;2024-03-02T13:32:14;5.50;99.90
7598;DHT22;3840;59.32098800;18.06423600;2024-03-02T13:34:40;5.40;99.90
7598;DHT22;3840;59.32098800;18.06423600;2024-03-02T13:37:07;5.50;99.90
7598;DHT22;3840;59.32098800;18.06423600;2024-03-02T13:39:33;5.50;99.90
7598;DHT22;3840;59.32098800;18.06423600;2024-03-02T13:42:08;5.60;99.90
7598;DHT22;3840;59.32098800;18.06423600;2024-03-02T13:44:35;5.60;99.90
7598;DHT22;3840;59.32098800;18.06423600;2024-03-02T13:47:01;5.50;99.90
7598;DHT22;3840;59.32098800;18.06423600;2024-03-02T13:49:27;5.50;99.90
7598;DHT22;3840;59.32098800;18.06423600;2024-03-02T13:52:00;5.40;99.90